D/T METAR WX W/DIR W/SPE G/SPE TEMP DEWP
7/12/19 23:20 EGGP 072320Z 20021KT 7000 RA FEW023 BKN035 10/09 Q0995 RA SSW (200°) 24.2mph 10°C 9°C
7/12/19 22:20 EGGP 072220Z 17015KT 9999 FEW025 SCT045 11/08 Q0996 S (170°) 17.3mph 11°C 8°C
7/12/19 21:50 EGGP 072150Z 19020KT 9999 SCT026 11/08 Q0998 S (190°) 23.0mph 11°C 8°C
7/12/19 21:20 EGGP 072120Z 17014KT 9999 SCT026 11/09 Q0999 S (170°) 16.1mph 11°C 9°C
7/12/19 20:20 EGGP 072020Z 16014KT 9999 BKN020 10/08 Q1001 SSE (160°) 16.1mph 10°C 8°C
7/12/19 19:50 EGGP 071950Z 18017KT 9999 BKN021 10/08 Q1002 S (180°) 19.6mph 10°C 8°C
7/12/19 19:20 EGGP 071920Z 20018KT 9999 SCT022 10/08 Q1003 SSW (200°) 20.7mph 10°C 8°C
7/12/19 18:50 EGGP 071850Z 21016KT 9999 FEW021 10/08 Q1003 SSW (210°) 18.4mph 10°C 8°C
7/12/19 17:50 EGGP 071750Z 20008KT 9999 FEW020 10/08 Q1005 SSW (200°) 9.2mph 10°C 8°C
7/12/19 17:20 EGGP 071720Z 22014KT 9999 SCT018 11/09 Q1005 SW (220°) 16.1mph 11°C 9°C
7/12/19 16:50 EGGP 071650Z 21013KT 9999 SCT018 11/08 Q1006 SSW (210°) 15.0mph 11°C 8°C
7/12/19 16:20 EGGP 071620Z 21013KT 9999 FEW018 11/09 Q1006 SSW (210°) 15.0mph 11°C 9°C
7/12/19 15:50 EGGP 071550Z 22012KT 9999 FEW014 SCT023 11/09 Q1007 SW (220°) 13.8mph 11°C 9°C
7/12/19 15:20 EGGP 071520Z 23010KT 9999 SCT032 BKN040 11/09 Q1007 SW (230°) 11.5mph 11°C 9°C
7/12/19 14:20 EGGP 071420Z 20009KT 9999 FEW024 BKN036 11/08 Q1008 SSW (200°) 10.4mph 11°C 8°C
7/12/19 13:50 EGGP 071350Z 21011KT 9999 BKN032 11/08 Q1008 SSW (210°) 12.7mph 11°C 8°C
7/12/19 13:20 EGGP 071320Z 21008KT 9999 BKN034 11/08 Q1009 SSW (210°) 9.2mph 11°C 8°C
7/12/19 12:20 EGGP 071220Z 20007KT 9999 SCT020 BKN036 11/08 Q1009 SSW (200°) 8.1mph 11°C 8°C
7/12/19 11:50 EGGP 071150Z 22009KT 9999 BKN036 10/08 Q1010 SW (220°) 10.4mph 10°C 8°C
7/12/19 11:20 EGGP 071120Z 22008KT 9999 BKN036 10/08 Q1010 SW (220°) 9.2mph 10°C 8°C
7/12/19 10:50 EGGP 071050Z 23010KT 9999 BKN028 10/07 Q1011 SW (230°) 11.5mph 10°C 7°C
7/12/19 10:20 EGGP 071020Z 23009KT 9999 BKN028 10/07 Q1011 SW (230°) 10.4mph 10°C 7°C
7/12/19 09:50 EGGP 070950Z 22008KT 9999 BKN030 10/08 Q1011 SW (220°) 9.2mph 10°C 8°C
7/12/19 08:50 EGGP 070850Z 23006KT 9999 BKN036 09/08 Q1011 SW (230°) 6.9mph 9°C 8°C
7/12/19 08:20 EGGP 070820Z 23009KT 9999 BKN036 09/08 Q1011 SW (230°) 10.4mph 9°C 8°C
7/12/19 07:50 EGGP 070750Z 25008KT 9999 BKN035 09/08 Q1011 WSW (250°) 9.2mph 9°C 8°C
7/12/19 07:20 EGGP 070720Z 27012KT 9999 FEW018 BKN035 09/08 Q1011 W (270°) 13.8mph 9°C 8°C
7/12/19 06:50 EGGP 070650Z 27011KT 9999 FEW017 BKN035 09/08 Q1011 W (270°) 12.7mph 9°C 8°C
7/12/19 06:20 EGGP 070620Z 27011KT 9999 FEW017 SCT035 BKN038 09/08 Q1010 W (270°) 12.7mph 9°C 8°C
7/12/19 05:50 EGGP 070550Z 28011KT 9999 FEW017 SCT022 BKN034 09/08 Q1010 W (280°) 12.7mph 9°C 8°C
7/12/19 05:20 EGGP 070520Z 27010KT 9999 FEW017 SCT022 BKN034 09/08 Q1010 W (270°) 11.5mph 9°C 8°C
7/12/19 04:50 EGGP 070450Z 27011KT 9999 SCT017 BKN034 09/08 Q1010 W (270°) 12.7mph 9°C 8°C
7/12/19 04:20 EGGP 070420Z 27010KT 9999 FEW014 OVC036 09/08 Q1009 W (270°) 11.5mph 9°C 8°C
7/12/19 03:50 EGGP 070350Z 27014KT 9999 FEW014 OVC036 09/08 Q1009 W (270°) 16.1mph 9°C 8°C
7/12/19 03:20 EGGP 070320Z 27013KT 9999 FEW014 OVC036 09/08 Q1009 W (270°) 15.0mph 9°C 8°C
7/12/19 02:50 EGGP 070250Z 28015KT 9999 FEW014 OVC036 09/08 Q1009 W (280°) 17.3mph 9°C 8°C
7/12/19 02:20 EGGP 070220Z 28014KT 9999 FEW031 BKN036 09/08 Q1009 W (280°) 16.1mph 9°C 8°C
7/12/19 01:50 EGGP 070150Z 27014KT 9999 FEW031 BKN036 09/08 Q1008 W (270°) 16.1mph 9°C 8°C
7/12/19 01:20 EGGP 070120Z 27016KT 9999 FEW031 BKN036 09/08 Q1008 W (270°) 18.4mph 9°C 8°C
7/12/19 00:50 EGGP 070050Z 27016KT 9999 FEW031 BKN036 10/08 Q1008 W (270°) 18.4mph 10°C 8°C
7/12/19 00:20 EGGP 070020Z 28018KT 9999 BKN015 SCT031 BKN036 10/08 Q1007 W (280°) 20.7mph 10°C 8°C
6/12/19 23:50 EGGP 062350Z 27014KT 9999 BKN015 BKN031 10/08 Q1007 W (270°) 16.1mph 10°C 8°C
6/12/19 23:20 EGGP 062320Z 27013KT 9999 FEW014 BKN034 OVC037 09/08 Q1007 W (270°) 15.0mph 9°C 8°C
6/12/19 22:50 EGGP 062250Z 27017KT 9999 FEW014 SCT019 BKN025 09/08 Q1006 W (270°) 19.6mph 9°C 8°C
6/12/19 22:20 EGGP 062220Z 27015KT 9999 FEW014 SCT019 BKN025 09/08 Q1006 W (270°) 17.3mph 9°C 8°C
6/12/19 21:50 EGGP 062150Z 28014KT 9999 SCT016 BKN029 OVC031 09/08 Q1006 W (280°) 16.1mph 9°C 8°C
6/12/19 21:20 EGGP 062120Z 28015KT 9999 SCT016 BKN029 OVC031 10/09 Q1005 W (280°) 17.3mph 10°C 9°C
6/12/19 20:50 EGGP 062050Z 28016KT 9999 SCT016 BKN022 10/09 Q1005 W (280°) 18.4mph 10°C 9°C